sensor_id;sensor_type;location;lat;lon;timestamp;temperature;humidity
74968;SHT30;63523;51.880;12.630;2022-12-18T00:00:43;-4.74;89.29
74968;SHT30;63523;51.880;12.630;2022-12-18T00:03:09;-4.85;89.81
74968;SHT30;63523;51.880;12.630;2022-12-18T00:05:35;-4.88;90.15
74968;SHT30;63523;51.880;12.630;2022-12-18T00:08:01;-4.78;90.58
74968;SHT30;63523;51.880;12.630;2022-12-18T00:10:27;-4.74;90.08
74968;SHT30;63523;51.880;12.630;2022-12-18T00:12:53;-4.77;89.95
74968;SHT30;63523;51.880;12.630;2022-12-18T00:15:18;-4.70;90.44
74968;SHT30;63523;51.880;12.630;2022-12-18T00:17:44;-4.71;89.58
74968;SHT30;63523;51.880;12.630;2022-12-18T00:20:10;-4.72;89.87
74968;SHT30;63523;51.880;12.630;2022-12-18T00:22:35;-4.72;89.95
74968;SHT30;63523;51.880;12.630;2022-12-18T00:25:01;-4.68;89.86
74968;SHT30;63523;51.880;12.630;2022-12-18T00:27:27;-4.64;89.52
74968;SHT30;63523;51.880;12.630;2022-12-18T00:29:52;-4.60;89.89
74968;SHT30;63523;51.880;12.630;2022-12-18T00:32:17;-4.64;89.76
74968;SHT30;63523;51.880;12.630;2022-12-18T00:34:43;-4.60;90.14
74968;SHT30;63523;51.880;12.630;2022-12-18T00:37:09;-4.60;90.20
74968;SHT30;63523;51.880;12.630;2022-12-18T00:39:34;-4.54;89.93
74968;SHT30;63523;51.880;12.630;2022-12-18T00:42:00;-4.53;90.13
74968;SHT30;63523;51.880;12.630;2022-12-18T00:44:44;-4.50;90.39
74968;SHT30;63523;51.880;12.630;2022-12-18T00:47:09;-4.43;90.26
74968;SHT30;63523;51.880;12.630;2022-12-18T00:49:35;-4.33;89.69
74968;SHT30;63523;51.880;12.630;2022-12-18T00:52:00;-4.27;89.78
74968;SHT30;63523;51.880;12.630;2022-12-18T00:54:26;-4.19;89.61
74968;SHT30;63523;51.880;12.630;2022-12-18T00:56:51;-4.15;89.58
74968;SHT30;63523;51.880;12.630;2022-12-18T00:59:17;-4.07;89.17
74968;SHT30;63523;51.880;12.630;2022-12-18T01:01:43;-4.07;89.37
74968;SHT30;63523;51.880;12.630;2022-12-18T01:04:09;-4.07;89.73
74968;SHT30;63523;51.880;12.630;2022-12-18T01:06:35;-4.05;89.93
74968;SHT30;63523;51.880;12.630;2022-12-18T01:09:01;-4.02;90.43
74968;SHT30;63523;51.880;12.630;2022-12-18T01:11:26;-3.98;90.22
74968;SHT30;63523;51.880;12.630;2022-12-18T01:13:53;-3.94;90.18
74968;SHT30;63523;51.880;12.630;2022-12-18T01:16:19;-3.94;90.33
74968;SHT30;63523;51.880;12.630;2022-12-18T01:18:45;-3.91;90.05
74968;SHT30;63523;51.880;12.630;2022-12-18T01:21:15;-3.89;90.31
74968;SHT30;63523;51.880;12.630;2022-12-18T01:23:44;-3.81;90.04
74968;SHT30;63523;51.880;12.630;2022-12-18T01:26:15;-3.88;89.62
74968;SHT30;63523;51.880;12.630;2022-12-18T01:28:41;-3.84;89.52
74968;SHT30;63523;51.880;12.630;2022-12-18T01:33:38;-3.91;89.53
74968;SHT30;63523;51.880;12.630;2022-12-18T01:36:04;-3.91;90.18
74968;SHT30;63523;51.880;12.630;2022-12-18T01:38:29;-3.88;90.10
74968;SHT30;63523;51.880;12.630;2022-12-18T01:40:59;-3.84;89.57
74968;SHT30;63523;51.880;12.630;2022-12-18T01:46:07;-3.82;89.84
74968;SHT30;63523;51.880;12.630;2022-12-18T01:48:32;-3.77;89.58
74968;SHT30;63523;51.880;12.630;2022-12-18T01:51:01;-3.77;89.71
74968;SHT30;63523;51.880;12.630;2022-12-18T01:53:26;-3.74;89.74
74968;SHT30;63523;51.880;12.630;2022-12-18T01:55:55;-3.74;90.17
74968;SHT30;63523;51.880;12.630;2022-12-18T01:58:46;-3.71;90.11
74968;SHT30;63523;51.880;12.630;2022-12-18T02:01:13;-3.67;90.24
74968;SHT30;63523;51.880;12.630;2022-12-18T02:03:43;-3.66;90.04
74968;SHT30;63523;51.880;12.630;2022-12-18T02:06:54;-3.63;90.04
74968;SHT30;63523;51.880;12.630;2022-12-18T02:09:27;-3.67;90.20
74968;SHT30;63523;51.880;12.630;2022-12-18T02:12:05;-3.67;90.19
74968;SHT30;63523;51.880;12.630;2022-12-18T02:15:36;-3.66;90.04
74968;SHT30;63523;51.880;12.630;2022-12-18T02:17:56;-3.66;89.88
74968;SHT30;63523;51.880;12.630;2022-12-18T02:23:54;-3.59;89.84
74968;SHT30;63523;51.880;12.630;2022-12-18T02:26:21;-3.53;89.98
74968;SHT30;63523;51.880;12.630;2022-12-18T02:28:54;-3.47;89.93
74968;SHT30;63523;51.880;12.630;2022-12-18T02:31:27;-3.50;89.69
74968;SHT30;63523;51.880;12.630;2022-12-18T02:33:59;-3.61;90.09
74968;SHT30;63523;51.880;12.630;2022-12-18T02:36:26;-3.68;90.22
74968;SHT30;63523;51.880;12.630;2022-12-18T02:38:54;-3.77;90.27
74968;SHT30;63523;51.880;12.630;2022-12-18T02:41:23;-3.79;89.82
74968;SHT30;63523;51.880;12.630;2022-12-18T02:43:58;-3.85;90.18
74968;SHT30;63523;51.880;12.630;2022-12-18T02:51:55;-3.79;90.17
74968;SHT30;63523;51.880;12.630;2022-12-18T02:56:58;-3.75;90.37
74968;SHT30;63523;51.880;12.630;2022-12-18T02:59:41;-3.64;89.59
74968;SHT30;63523;51.880;12.630;2022-12-18T03:05:03;-3.68;89.22
74968;SHT30;63523;51.880;12.630;2022-12-18T03:07:38;-3.79;89.84
74968;SHT30;63523;51.880;12.630;2022-12-18T03:10:07;-3.71;89.30
74968;SHT30;63523;51.880;12.630;2022-12-18T03:12:42;-3.79;89.79
74968;SHT30;63523;51.880;12.630;2022-12-18T03:15:14;-3.89;89.44
74968;SHT30;63523;51.880;12.630;2022-12-18T03:17:46;-3.98;89.61
74968;SHT30;63523;51.880;12.630;2022-12-18T03:20:17;-3.98;89.97
74968;SHT30;63523;51.880;12.630;2022-12-18T03:22:47;-4.01;89.82
74968;SHT30;63523;51.880;12.630;2022-12-18T03:25:16;-3.99;90.13
74968;SHT30;63523;51.880;12.630;2022-12-18T03:27:47;-3.96;89.62
74968;SHT30;63523;51.880;12.630;2022-12-18T03:30:15;-4.01;89.55
74968;SHT30;63523;51.880;12.630;2022-12-18T03:32:50;-4.01;88.93
74968;SHT30;63523;51.880;12.630;2022-12-18T03:35:21;-4.06;88.81
74968;SHT30;63523;51.880;12.630;2022-12-18T03:37:48;-4.16;88.84
74968;SHT30;63523;51.880;12.630;2022-12-18T03:40:14;-4.24;89.38
74968;SHT30;63523;51.880;12.630;2022-12-18T03:42:49;-4.27;89.44
74968;SHT30;63523;51.880;12.630;2022-12-18T03:45:22;-4.27;88.90
74968;SHT30;63523;51.880;12.630;2022-12-18T03:48:22;-4.29;88.44
74968;SHT30;63523;51.880;12.630;2022-12-18T03:51:18;-4.47;88.85
74968;SHT30;63523;51.880;12.630;2022-12-18T03:53:59;-4.51;89.59
74968;SHT30;63523;51.880;12.630;2022-12-18T03:56:32;-4.62;89.54
74968;SHT30;63523;51.880;12.630;2022-12-18T03:58:59;-4.67;90.52
74968;SHT30;63523;51.880;12.630;2022-12-18T04:01:31;-4.62;90.56
74968;SHT30;63523;51.880;12.630;2022-12-18T04:04:00;-4.58;90.12
74968;SHT30;63523;51.880;12.630;2022-12-18T04:06:28;-4.57;90.02
74968;SHT30;63523;51.880;12.630;2022-12-18T04:08:54;-4.56;89.97
74968;SHT30;63523;51.880;12.630;2022-12-18T04:11:19;-4.47;89.36
74968;SHT30;63523;51.880;12.630;2022-12-18T04:13:45;-4.64;89.01
74968;SHT30;63523;51.880;12.630;2022-12-18T04:16:10;-4.70;89.61
74968;SHT30;63523;51.880;12.630;2022-12-18T04:18:36;-4.79;89.79
74968;SHT30;63523;51.880;12.630;2022-12-18T04:21:02;-4.77;89.53
74968;SHT30;63523;51.880;12.630;2022-12-18T04:23:28;-4.77;89.37
74968;SHT30;63523;51.880;12.630;2022-12-18T04:25:54;-4.64;88.83
74968;SHT30;63523;51.880;12.630;2022-12-18T04:28:20;-4.64;88.65
74968;SHT30;63523;51.880;12.630;2022-12-18T04:30:49;-4.68;88.70
74968;SHT30;63523;51.880;12.630;2022-12-18T04:33:17;-4.70;88.38
74968;SHT30;63523;51.880;12.630;2022-12-18T04:35:43;-4.77;88.43
74968;SHT30;63523;51.880;12.630;2022-12-18T04:38:09;-4.87;88.54
74968;SHT30;63523;51.880;12.630;2022-12-18T04:40:36;-4.93;88.47
74968;SHT30;63523;51.880;12.630;2022-12-18T04:43:02;-4.92;88.16
74968;SHT30;63523;51.880;12.630;2022-12-18T04:45:28;-4.99;88.08
74968;SHT30;63523;51.880;12.630;2022-12-18T04:47:53;-4.91;87.47
74968;SHT30;63523;51.880;12.630;2022-12-18T04:50:19;-5.05;88.48
74968;SHT30;63523;51.880;12.630;2022-12-18T04:52:44;-5.07;89.03
74968;SHT30;63523;51.880;12.630;2022-12-18T04:55:10;-4.98;89.04
74968;SHT30;63523;51.880;12.630;2022-12-18T04:57:35;-4.92;88.80
74968;SHT30;63523;51.880;12.630;2022-12-18T05:00:01;-4.87;88.45
74968;SHT30;63523;51.880;12.630;2022-12-18T05:02:26;-4.92;88.28
74968;SHT30;63523;51.880;12.630;2022-12-18T05:04:52;-5.00;88.79
74968;SHT30;63523;51.880;12.630;2022-12-18T05:07:17;-4.98;88.56
74968;SHT30;63523;51.880;12.630;2022-12-18T05:09:43;-5.02;88.84
74968;SHT30;63523;51.880;12.630;2022-12-18T05:12:08;-4.98;89.33
74968;SHT30;63523;51.880;12.630;2022-12-18T05:14:34;-4.99;89.23
74968;SHT30;63523;51.880;12.630;2022-12-18T05:16:59;-5.10;90.22
74968;SHT30;63523;51.880;12.630;2022-12-18T05:19:25;-5.05;89.99
74968;SHT30;63523;51.880;12.630;2022-12-18T05:21:50;-4.95;89.83
74968;SHT30;63523;51.880;12.630;2022-12-18T05:24:16;-4.85;89.37
74968;SHT30;63523;51.880;12.630;2022-12-18T05:26:41;-4.82;89.57
74968;SHT30;63523;51.880;12.630;2022-12-18T05:29:07;-4.87;89.40
74968;SHT30;63523;51.880;12.630;2022-12-18T05:31:32;-5.02;90.02
74968;SHT30;63523;51.880;12.630;2022-12-18T05:33:58;-5.03;90.49
74968;SHT30;63523;51.880;12.630;2022-12-18T05:36:23;-4.96;90.33
74968;SHT30;63523;51.880;12.630;2022-12-18T05:38:52;-4.96;89.73
74968;SHT30;63523;51.880;12.630;2022-12-18T05:41:17;-4.96;89.63
74968;SHT30;63523;51.880;12.630;2022-12-18T05:43:43;-4.99;89.31
74968;SHT30;63523;51.880;12.630;2022-12-18T05:46:13;-4.99;89.22
74968;SHT30;63523;51.880;12.630;2022-12-18T05:48:38;-5.13;89.95
74968;SHT30;63523;51.880;12.630;2022-12-18T05:51:09;-5.07;90.37
74968;SHT30;63523;51.880;12.630;2022-12-18T05:53:37;-4.99;89.68
74968;SHT30;63523;51.880;12.630;2022-12-18T05:56:05;-4.99;89.49
74968;SHT30;63523;51.880;12.630;2022-12-18T05:58:31;-5.05;90.33
74968;SHT30;63523;51.880;12.630;2022-12-18T06:01:04;-4.99;89.80
74968;SHT30;63523;51.880;12.630;2022-12-18T06:03:30;-4.93;89.97
74968;SHT30;63523;51.880;12.630;2022-12-18T06:05:56;-4.88;89.69
74968;SHT30;63523;51.880;12.630;2022-12-18T06:08:21;-4.93;89.69
74968;SHT30;63523;51.880;12.630;2022-12-18T06:10:50;-4.96;90.14
74968;SHT30;63523;51.880;12.630;2022-12-18T06:13:16;-4.93;90.14
74968;SHT30;63523;51.880;12.630;2022-12-18T06:15:42;-4.95;90.05
74968;SHT30;63523;51.880;12.630;2022-12-18T06:18:07;-4.96;88.99
74968;SHT30;63523;51.880;12.630;2022-12-18T06:20:33;-4.91;89.29
74968;SHT30;63523;51.880;12.630;2022-12-18T06:22:59;-4.93;88.93
74968;SHT30;63523;51.880;12.630;2022-12-18T06:25:24;-5.03;88.82
74968;SHT30;63523;51.880;12.630;2022-12-18T06:27:50;-5.30;89.12
74968;SHT30;63523;51.880;12.630;2022-12-18T06:30:15;-5.22;88.82
74968;SHT30;63523;51.880;12.630;2022-12-18T06:32:41;-5.26;87.67
74968;SHT30;63523;51.880;12.630;2022-12-18T06:35:07;-5.46;88.04
74968;SHT30;63523;51.880;12.630;2022-12-18T06:37:32;-5.58;88.57
74968;SHT30;63523;51.880;12.630;2022-12-18T06:39:58;-5.69;88.76
74968;SHT30;63523;51.880;12.630;2022-12-18T06:42:24;-5.74;88.56
74968;SHT30;63523;51.880;12.630;2022-12-18T06:44:50;-5.68;88.13
74968;SHT30;63523;51.880;12.630;2022-12-18T06:47:15;-5.81;87.86
74968;SHT30;63523;51.880;12.630;2022-12-18T06:49:41;-5.85;87.64
74968;SHT30;63523;51.880;12.630;2022-12-18T06:52:06;-5.88;87.42
74968;SHT30;63523;51.880;12.630;2022-12-18T06:54:32;-6.06;88.45
74968;SHT30;63523;51.880;12.630;2022-12-18T06:56:57;-6.24;88.64
74968;SHT30;63523;51.880;12.630;2022-12-18T06:59:22;-6.24;88.49
74968;SHT30;63523;51.880;12.630;2022-12-18T07:01:48;-6.24;88.76
74968;SHT30;63523;51.880;12.630;2022-12-18T07:04:13;-6.34;88.82
74968;SHT30;63523;51.880;12.630;2022-12-18T07:06:39;-6.38;89.04
74968;SHT30;63523;51.880;12.630;2022-12-18T07:09:04;-6.45;88.88
74968;SHT30;63523;51.880;12.630;2022-12-18T07:11:32;-6.49;88.79
74968;SHT30;63523;51.880;12.630;2022-12-18T07:14:04;-6.40;88.26
74968;SHT30;63523;51.880;12.630;2022-12-18T07:16:32;-6.49;88.15
74968;SHT30;63523;51.880;12.630;2022-12-18T07:18:59;-6.49;87.88
74968;SHT30;63523;51.880;12.630;2022-12-18T07:21:24;-6.54;88.28
74968;SHT30;63523;51.880;12.630;2022-12-18T07:23:50;-6.72;89.07
74968;SHT30;63523;51.880;12.630;2022-12-18T07:26:18;-6.88;89.69
74968;SHT30;63523;51.880;12.630;2022-12-18T07:28:44;-6.89;89.49
74968;SHT30;63523;51.880;12.630;2022-12-18T07:31:13;-6.92;89.16
74968;SHT30;63523;51.880;12.630;2022-12-18T07:33:40;-7.01;89.48
74968;SHT30;63523;51.880;12.630;2022-12-18T07:36:06;-6.89;88.43
74968;SHT30;63523;51.880;12.630;2022-12-18T07:38:33;-7.07;89.26
74968;SHT30;63523;51.880;12.630;2022-12-18T07:41:08;-6.96;88.33
74968;SHT30;63523;51.880;12.630;2022-12-18T07:43:34;-7.08;88.65
74968;SHT30;63523;51.880;12.630;2022-12-18T07:46:00;-7.10;88.80
74968;SHT30;63523;51.880;12.630;2022-12-18T07:48:26;-7.14;89.02
74968;SHT30;63523;51.880;12.630;2022-12-18T07:50:51;-7.14;89.10
74968;SHT30;63523;51.880;12.630;2022-12-18T07:53:17;-6.99;88.38
74968;SHT30;63523;51.880;12.630;2022-12-18T07:55:42;-7.06;88.52
74968;SHT30;63523;51.880;12.630;2022-12-18T07:58:08;-7.11;88.63
74968;SHT30;63523;51.880;12.630;2022-12-18T08:00:34;-7.10;88.89
74968;SHT30;63523;51.880;12.630;2022-12-18T08:03:00;-7.20;89.03
74968;SHT30;63523;51.880;12.630;2022-12-18T08:05:26;-7.21;88.85
74968;SHT30;63523;51.880;12.630;2022-12-18T08:07:52;-7.20;88.97
74968;SHT30;63523;51.880;12.630;2022-12-18T08:10:19;-7.11;88.89
74968;SHT30;63523;51.880;12.630;2022-12-18T08:12:44;-7.01;88.22
74968;SHT30;63523;51.880;12.630;2022-12-18T08:15:10;-7.04;88.34
74968;SHT30;63523;51.880;12.630;2022-12-18T08:17:36;-6.97;88.04
74968;SHT30;63523;51.880;12.630;2022-12-18T08:20:01;-7.04;88.52
74968;SHT30;63523;51.880;12.630;2022-12-18T08:22:27;-7.01;88.12
74968;SHT30;63523;51.880;12.630;2022-12-18T08:24:52;-7.00;88.47
74968;SHT30;63523;51.880;12.630;2022-12-18T08:27:18;-6.96;88.04
74968;SHT30;63523;51.880;12.630;2022-12-18T08:29:43;-7.00;88.51
74968;SHT30;63523;51.880;12.630;2022-12-18T08:32:09;-6.92;88.55
74968;SHT30;63523;51.880;12.630;2022-12-18T08:34:35;-6.90;88.35
74968;SHT30;63523;51.880;12.630;2022-12-18T08:37:00;-6.92;88.99
74968;SHT30;63523;51.880;12.630;2022-12-18T08:39:26;-6.67;88.12
74968;SHT30;63523;51.880;12.630;2022-12-18T08:41:51;-6.64;86.88
74968;SHT30;63523;51.880;12.630;2022-12-18T08:44:35;-6.46;87.49
74968;SHT30;63523;51.880;12.630;2022-12-18T08:47:07;-6.65;86.93
74968;SHT30;63523;51.880;12.630;2022-12-18T08:49:34;-6.55;86.79
74968;SHT30;63523;51.880;12.630;2022-12-18T08:52:00;-6.55;86.08
74968;SHT30;63523;51.880;12.630;2022-12-18T08:54:26;-6.65;86.27
74968;SHT30;63523;51.880;12.630;2022-12-18T08:56:52;-6.73;86.06
74968;SHT30;63523;51.880;12.630;2022-12-18T08:59:18;-6.75;86.34
74968;SHT30;63523;51.880;12.630;2022-12-18T09:01:44;-6.86;85.95
74968;SHT30;63523;51.880;12.630;2022-12-18T09:04:10;-7.03;87.32
74968;SHT30;63523;51.880;12.630;2022-12-18T09:06:36;-7.06;87.40
74968;SHT30;63523;51.880;12.630;2022-12-18T09:09:02;-7.14;87.88
74968;SHT30;63523;51.880;12.630;2022-12-18T09:11:28;-7.10;88.06
74968;SHT30;63523;51.880;12.630;2022-12-18T09:13:55;-7.01;88.78
74968;SHT30;63523;51.880;12.630;2022-12-18T09:16:22;-7.04;87.84
74968;SHT30;63523;51.880;12.630;2022-12-18T09:18:48;-6.95;88.66
74968;SHT30;63523;51.880;12.630;2022-12-18T09:21:16;-6.78;87.78
74968;SHT30;63523;51.880;12.630;2022-12-18T09:23:42;-6.72;87.30
74968;SHT30;63523;51.880;12.630;2022-12-18T09:26:08;-6.86;87.59
74968;SHT30;63523;51.880;12.630;2022-12-18T09:28:33;-7.03;88.49
74968;SHT30;63523;51.880;12.630;2022-12-18T09:31:04;-6.97;88.82
74968;SHT30;63523;51.880;12.630;2022-12-18T09:33:30;-6.95;88.54
74968;SHT30;63523;51.880;12.630;2022-12-18T09:35:56;-6.72;88.05
74968;SHT30;63523;51.880;12.630;2022-12-18T09:38:21;-6.71;88.49
74968;SHT30;63523;51.880;12.630;2022-12-18T09:40:51;-6.52;88.86
74968;SHT30;63523;51.880;12.630;2022-12-18T09:43:24;-6.38;88.21
74968;SHT30;63523;51.880;12.630;2022-12-18T09:45:56;-6.37;88.24
74968;SHT30;63523;51.880;12.630;2022-12-18T09:48:26;-6.42;88.74
74968;SHT30;63523;51.880;12.630;2022-12-18T09:50:57;-6.20;89.22
74968;SHT30;63523;51.880;12.630;2022-12-18T09:53:27;-5.98;88.23
74968;SHT30;63523;51.880;12.630;2022-12-18T09:55:56;-5.92;88.21
74968;SHT30;63523;51.880;12.630;2022-12-18T09:58:37;-5.90;87.97
74968;SHT30;63523;51.880;12.630;2022-12-18T10:01:23;-5.96;88.97
74968;SHT30;63523;51.880;12.630;2022-12-18T10:03:50;-5.88;88.71
74968;SHT30;63523;51.880;12.630;2022-12-18T10:06:21;-5.93;89.08
74968;SHT30;63523;51.880;12.630;2022-12-18T10:16:58;-5.40;88.69
74968;SHT30;63523;51.880;12.630;2022-12-18T10:19:51;-5.58;88.71
74968;SHT30;63523;51.880;12.630;2022-12-18T10:25:25;-5.16;87.66
74968;SHT30;63523;51.880;12.630;2022-12-18T10:27:58;-5.20;88.03
74968;SHT30;63523;51.880;12.630;2022-12-18T10:30:26;-5.15;89.04
74968;SHT30;63523;51.880;12.630;2022-12-18T10:32:51;-4.78;87.40
74968;SHT30;63523;51.880;12.630;2022-12-18T10:35:24;-4.85;87.28
74968;SHT30;63523;51.880;12.630;2022-12-18T10:40:59;-4.50;87.14
74968;SHT30;63523;51.880;12.630;2022-12-18T10:43:33;-4.49;86.40
74968;SHT30;63523;51.880;12.630;2022-12-18T10:48:39;-4.23;86.55
74968;SHT30;63523;51.880;12.630;2022-12-18T10:51:06;-4.27;86.62
74968;SHT30;63523;51.880;12.630;2022-12-18T10:53:35;-4.26;86.97
74968;SHT30;63523;51.880;12.630;2022-12-18T10:56:03;-4.34;87.06
74968;SHT30;63523;51.880;12.630;2022-12-18T10:58:37;-4.22;87.18
74968;SHT30;63523;51.880;12.630;2022-12-18T11:01:13;-4.20;86.94
74968;SHT30;63523;51.880;12.630;2022-12-18T11:03:46;-4.05;86.79
74968;SHT30;63523;51.880;12.630;2022-12-18T11:06:17;-4.01;86.99
74968;SHT30;63523;51.880;12.630;2022-12-18T11:08:56;-3.79;86.49
74968;SHT30;63523;51.880;12.630;2022-12-18T11:11:24;-3.60;86.41
74968;SHT30;63523;51.880;12.630;2022-12-18T11:14:03;-3.54;86.13
74968;SHT30;63523;51.880;12.630;2022-12-18T11:16:33;-3.50;86.13
74968;SHT30;63523;51.880;12.630;2022-12-18T11:21:40;-3.39;87.12
74968;SHT30;63523;51.880;12.630;2022-12-18T11:26:46;-3.33;86.75
74968;SHT30;63523;51.880;12.630;2022-12-18T11:29:17;-3.23;85.52
74968;SHT30;63523;51.880;12.630;2022-12-18T11:31:43;-3.38;87.01
74968;SHT30;63523;51.880;12.630;2022-12-18T11:34:29;-3.36;87.34
74968;SHT30;63523;51.880;12.630;2022-12-18T11:36:58;-3.44;86.68
74968;SHT30;63523;51.880;12.630;2022-12-18T11:40:09;-3.36;86.78
74968;SHT30;63523;51.880;12.630;2022-12-18T11:42:37;-3.25;86.34
74968;SHT30;63523;51.880;12.630;2022-12-18T11:47:50;-2.96;86.39
74968;SHT30;63523;51.880;12.630;2022-12-18T11:50:20;-3.02;85.45
74968;SHT30;63523;51.880;12.630;2022-12-18T11:52:47;-3.11;85.05
74968;SHT30;63523;51.880;12.630;2022-12-18T12:00:39;-2.96;85.28
74968;SHT30;63523;51.880;12.630;2022-12-18T12:09:34;-3.05;85.14
74968;SHT30;63523;51.880;12.630;2022-12-18T12:15:37;-3.44;86.72
74968;SHT30;63523;51.880;12.630;2022-12-18T12:34:18;-3.26;87.63
74968;SHT30;63523;51.880;12.630;2022-12-18T12:37:17;-3.28;86.51
74968;SHT30;63523;51.880;12.630;2022-12-18T12:39:47;-3.36;87.40
74968;SHT30;63523;51.880;12.630;2022-12-18T12:42:23;-3.42;87.34
74968;SHT30;63523;51.880;12.630;2022-12-18T12:45:15;-3.39;87.69
74968;SHT30;63523;51.880;12.630;2022-12-18T12:47:44;-3.50;87.53
74968;SHT30;63523;51.880;12.630;2022-12-18T12:50:16;-3.50;88.45
74968;SHT30;63523;51.880;12.630;2022-12-18T12:52:52;-3.39;88.15
74968;SHT30;63523;51.880;12.630;2022-12-18T12:55:22;-3.28;87.76
74968;SHT30;63523;51.880;12.630;2022-12-18T13:00:23;-3.17;87.80
74968;SHT30;63523;51.880;12.630;2022-12-18T13:03:06;-3.08;87.74
74968;SHT30;63523;51.880;12.630;2022-12-18T13:05:48;-2.94;87.68
74968;SHT30;63523;51.880;12.630;2022-12-18T13:08:34;-2.76;86.89
74968;SHT30;63523;51.880;12.630;2022-12-18T13:14:34;-2.60;86.11
74968;SHT30;63523;51.880;12.630;2022-12-18T13:22:53;-2.91;86.74
74968;SHT30;63523;51.880;12.630;2022-12-18T13:30:46;-2.98;87.19
74968;SHT30;63523;51.880;12.630;2022-12-18T13:35:51;-3.05;87.97
74968;SHT30;63523;51.880;12.630;2022-12-18T13:38:38;-3.06;87.67
74968;SHT30;63523;51.880;12.630;2022-12-18T13:43:57;-2.77;87.26
74968;SHT30;63523;51.880;12.630;2022-12-18T13:46:42;-3.09;87.69
74968;SHT30;63523;51.880;12.630;2022-12-18T13:51:46;-2.89;87.11
74968;SHT30;63523;51.880;12.630;2022-12-18T13:56:46;-3.13;87.86
74968;SHT30;63523;51.880;12.630;2022-12-18T13:59:25;-3.16;88.39
74968;SHT30;63523;51.880;12.630;2022-12-18T14:02:00;-3.20;88.54
74968;SHT30;63523;51.880;12.630;2022-12-18T14:04:32;-3.12;88.49
74968;SHT30;63523;51.880;12.630;2022-12-18T14:09:45;-3.06;88.18
74968;SHT30;63523;51.880;12.630;2022-12-18T14:12:17;-2.96;87.60
74968;SHT30;63523;51.880;12.630;2022-12-18T14:15:02;-3.13;88.76
74968;SHT30;63523;51.880;12.630;2022-12-18T14:17:28;-3.28;89.16
74968;SHT30;63523;51.880;12.630;2022-12-18T14:19:53;-3.39;90.03
74968;SHT30;63523;51.880;12.630;2022-12-18T14:22:25;-3.35;90.08
74968;SHT30;63523;51.880;12.630;2022-12-18T14:25:25;-3.39;89.73
74968;SHT30;63523;51.880;12.630;2022-12-18T14:30:41;-3.53;90.11
74968;SHT30;63523;51.880;12.630;2022-12-18T14:35:35;-3.59;90.58
74968;SHT30;63523;51.880;12.630;2022-12-18T14:38:21;-3.51;89.76
74968;SHT30;63523;51.880;12.630;2022-12-18T14:40:52;-3.47;89.60
74968;SHT30;63523;51.880;12.630;2022-12-18T14:43:17;-3.33;88.95
74968;SHT30;63523;51.880;12.630;2022-12-18T14:45:44;-3.39;88.76
74968;SHT30;63523;51.880;12.630;2022-12-18T14:50:36;-3.70;90.68
74968;SHT30;63523;51.880;12.630;2022-12-18T14:53:02;-3.61;89.93
74968;SHT30;63523;51.880;12.630;2022-12-18T14:55:28;-3.78;90.59
74968;SHT30;63523;51.880;12.630;2022-12-18T14:57:55;-3.57;89.53
74968;SHT30;63523;51.880;12.630;2022-12-18T15:00:24;-3.67;89.76
74968;SHT30;63523;51.880;12.630;2022-12-18T15:02:55;-3.81;90.57
74968;SHT30;63523;51.880;12.630;2022-12-18T15:05:26;-3.92;91.10
74968;SHT30;63523;51.880;12.630;2022-12-18T15:07:54;-4.02;91.51
74968;SHT30;63523;51.880;12.630;2022-12-18T15:10:22;-4.02;91.47
74968;SHT30;63523;51.880;12.630;2022-12-18T15:20:40;-4.05;90.98
74968;SHT30;63523;51.880;12.630;2022-12-18T15:25:58;-4.01;90.23
74968;SHT30;63523;51.880;12.630;2022-12-18T15:28:32;-3.94;89.62
74968;SHT30;63523;51.880;12.630;2022-12-18T15:31:20;-4.06;89.97
74968;SHT30;63523;51.880;12.630;2022-12-18T15:36:19;-4.03;89.65
74968;SHT30;63523;51.880;12.630;2022-12-18T15:38:49;-4.09;89.85
74968;SHT30;63523;51.880;12.630;2022-12-18T15:41:17;-4.15;90.28
74968;SHT30;63523;51.880;12.630;2022-12-18T15:43:43;-4.16;90.28
74968;SHT30;63523;51.880;12.630;2022-12-18T15:46:16;-4.22;90.39
74968;SHT30;63523;51.880;12.630;2022-12-18T15:48:46;-4.23;90.13
74968;SHT30;63523;51.880;12.630;2022-12-18T15:53:47;-4.39;91.39
74968;SHT30;63523;51.880;12.630;2022-12-18T15:56:14;-4.34;91.19
74968;SHT30;63523;51.880;12.630;2022-12-18T15:59:02;-4.23;90.45
74968;SHT30;63523;51.880;12.630;2022-12-18T16:01:30;-4.20;89.77
74968;SHT30;63523;51.880;12.630;2022-12-18T16:03:56;-4.32;90.23
74968;SHT30;63523;51.880;12.630;2022-12-18T16:06:23;-4.40;91.01
74968;SHT30;63523;51.880;12.630;2022-12-18T16:08:49;-4.30;90.33
74968;SHT30;63523;51.880;12.630;2022-12-18T16:11:26;-4.39;90.40
74968;SHT30;63523;51.880;12.630;2022-12-18T16:16:55;-4.47;90.89
74968;SHT30;63523;51.880;12.630;2022-12-18T16:19:21;-4.43;90.62
74968;SHT30;63523;51.880;12.630;2022-12-18T16:21:48;-4.46;90.46
74968;SHT30;63523;51.880;12.630;2022-12-18T16:24:26;-4.54;90.91
74968;SHT30;63523;51.880;12.630;2022-12-18T16:26:53;-4.49;90.54
74968;SHT30;63523;51.880;12.630;2022-12-18T16:29:19;-4.51;90.67
74968;SHT30;63523;51.880;12.630;2022-12-18T16:31:50;-4.58;91.11
74968;SHT30;63523;51.880;12.630;2022-12-18T16:36:54;-4.49;90.01
74968;SHT30;63523;51.880;12.630;2022-12-18T16:39:20;-4.41;89.34
74968;SHT30;63523;51.880;12.630;2022-12-18T16:41:46;-4.47;89.91
74968;SHT30;63523;51.880;12.630;2022-12-18T16:44:12;-4.50;90.01
74968;SHT30;63523;51.880;12.630;2022-12-18T16:46:38;-4.50;89.98
74968;SHT30;63523;51.880;12.630;2022-12-18T16:49:04;-4.53;89.76
74968;SHT30;63523;51.880;12.630;2022-12-18T16:51:33;-4.54;89.79
74968;SHT30;63523;51.880;12.630;2022-12-18T16:53:59;-4.51;89.73
74968;SHT30;63523;51.880;12.630;2022-12-18T16:56:24;-4.58;89.56
74968;SHT30;63523;51.880;12.630;2022-12-18T16:58:55;-4.64;89.95
74968;SHT30;63523;51.880;12.630;2022-12-18T17:01:22;-4.71;90.18
74968;SHT30;63523;51.880;12.630;2022-12-18T17:03:56;-4.58;89.44
74968;SHT30;63523;51.880;12.630;2022-12-18T17:06:22;-4.62;89.54
74968;SHT30;63523;51.880;12.630;2022-12-18T17:08:52;-4.58;89.67
74968;SHT30;63523;51.880;12.630;2022-12-18T17:11:19;-4.61;89.30
74968;SHT30;63523;51.880;12.630;2022-12-18T17:13:44;-4.56;89.39
74968;SHT30;63523;51.880;12.630;2022-12-18T17:16:10;-4.56;89.06
74968;SHT30;63523;51.880;12.630;2022-12-18T17:18:36;-4.41;88.02
74968;SHT30;63523;51.880;12.630;2022-12-18T17:21:03;-4.46;88.21
74968;SHT30;63523;51.880;12.630;2022-12-18T17:23:29;-4.40;88.17
74968;SHT30;63523;51.880;12.630;2022-12-18T17:25:58;-4.46;87.82
74968;SHT30;63523;51.880;12.630;2022-12-18T17:28:25;-4.54;88.48
74968;SHT30;63523;51.880;12.630;2022-12-18T17:30:52;-4.77;89.44
74968;SHT30;63523;51.880;12.630;2022-12-18T17:33:17;-4.72;89.42
74968;SHT30;63523;51.880;12.630;2022-12-18T17:35:43;-4.75;89.28
74968;SHT30;63523;51.880;12.630;2022-12-18T17:38:09;-4.72;88.90
74968;SHT30;63523;51.880;12.630;2022-12-18T17:40:35;-4.77;89.16
74968;SHT30;63523;51.880;12.630;2022-12-18T17:43:01;-4.87;89.37